Time;durP1;ratioP1;P1;durP2;ratioP2;P2;SDS_P1;SDS_P2;PMS_P1;PMS_P2;Temp;Humidity;BMP_temperature;BMP_pressure;BME280_temperature;BME280_humidity;BME280_pressure;Samples;Min_cycle;Max_cycle;Signal;HPM_P1;HPM_P2
2021/08/05 00:02:10;;;;;;;15.68;13.85;;;;;;;;;;5095596;28;20051;-83
2021/08/05 00:04:36;;;;;;;15.43;12.60;;;;;;;;;;5095499;28;20384;-83
2021/08/05 00:07:02;;;;;;;16.33;14.05;;;;;;;;;;5095433;28;20028;-83
2021/08/05 00:09:27;;;;;;;18.38;11.20;;;;;;;;;;5094065;28;20050;-83
2021/08/05 00:11:53;;;;;;;17.83;12.75;;;;;;;;;;5095377;28;20425;-83
2021/08/05 00:14:19;;;;;;;22.42;13.10;;;;;;;;;;5095397;28;20475;-83
2021/08/05 00:16:44;;;;;;;22.30;17.33;;;;;;;;;;5093862;28;20035;-83
2021/08/05 00:19:10;;;;;;;39.13;16.60;;;;;;;;;;5095217;28;20073;-82
2021/08/05 00:21:36;;;;;;;30.60;14.75;;;;;;;;;;5095155;28;20103;-83
2021/08/05 00:24:01;;;;;;;19.02;14.35;;;;;;;;;;5095019;28;20065;-82
2021/08/05 00:26:27;;;;;;;20.40;16.00;;;;;;;;;;5094989;28;20043;-83
2021/08/05 00:28:53;;;;;;;20.27;17.30;;;;;;;;;;5095019;28;20384;-83
2021/08/05 00:31:19;;;;;;;23.08;18.20;;;;;;;;;;5095071;28;20020;-83
2021/08/05 00:33:44;;;;;;;21.35;17.38;;;;;;;;;;5094938;28;20077;-83
2021/08/05 00:36:10;;;;;;;20.77;18.35;;;;;;;;;;5094865;28;20020;-83
2021/08/05 00:38:36;;;;;;;17.58;13.60;;;;;;;;;;5094787;28;20107;-83
2021/08/05 00:41:02;;;;;;;19.42;16.55;;;;;;;;;;5095030;28;20384;-83
2021/08/05 00:43:28;;;;;;;27.33;22.27;;;;;;;;;;5094676;28;20047;-82
2021/08/05 00:45:54;;;;;;;32.15;19.55;;;;;;;;;;5094570;28;20141;-82
2021/08/05 00:48:19;;;;;;;30.33;24.83;;;;;;;;;;5094661;28;20016;-83
2021/08/05 00:50:47;;;;;;;36.45;24.80;;;;;;;;;;5093838;28;20077;-82
2021/08/05 00:53:15;;;;;;;35.70;25.08;;;;;;;;;;5094834;28;20460;-83
2021/08/05 00:55:41;;;;;;;37.22;27.08;;;;;;;;;;5100017;28;20055;-82
2021/08/05 00:58:06;;;;;;;26.63;21.65;;;;;;;;;;5114689;28;20497;-82
2021/08/05 01:00:32;;;;;;;31.17;24.92;;;;;;;;;;5114669;28;20051;-83
2021/08/05 01:03:23;;;;;;;31.33;22.73;;;;;;;;;;5096321;28;20118;-82
2021/08/05 01:05:57;;;;;;;32.65;26.23;;;;;;;;;;5100263;28;20168;-83
2021/08/05 01:08:25;;;;;;;26.70;19.90;;;;;;;;;;5114976;28;20026;-83
2021/08/05 01:11:02;;;;;;;28.23;23.25;;;;;;;;;;5114575;28;20027;-83
2021/08/05 01:13:33;;;;;;;24.00;19.50;;;;;;;;;;5096221;28;20379;-83
2021/08/05 01:16:01;;;;;;;25.42;20.17;;;;;;;;;;5114716;28;20077;-83
2021/08/05 01:18:31;;;;;;;24.13;16.25;;;;;;;;;;5114508;28;20102;-83
2021/08/05 01:21:03;;;;;;;24.33;17.38;;;;;;;;;;5114333;28;20493;-83
2021/08/05 01:23:49;;;;;;;25.25;17.35;;;;;;;;;;5114645;28;20453;-82
2021/08/05 01:26:23;;;;;;;22.23;17.17;;;;;;;;;;5095979;28;20043;-83
2021/08/05 01:28:50;;;;;;;27.52;20.05;;;;;;;;;;5114720;28;20115;-83
2021/08/05 01:31:17;;;;;;;22.48;19.38;;;;;;;;;;5114200;28;20073;-82
2021/08/05 01:33:47;;;;;;;23.13;17.33;;;;;;;;;;5114252;28;20034;-83
2021/08/05 01:36:12;;;;;;;21.48;16.95;;;;;;;;;;5114177;28;20015;-83
2021/08/05 01:38:40;;;;;;;21.50;16.48;;;;;;;;;;5114614;28;20436;-83
2021/08/05 01:41:07;;;;;;;25.73;20.73;;;;;;;;;;5114330;28;20027;-82
2021/08/05 01:43:35;;;;;;;25.38;21.00;;;;;;;;;;5114308;28;20031;-83
2021/08/05 01:46:01;;;;;;;26.05;21.05;;;;;;;;;;5114498;28;20161;-82
2021/08/05 01:48:30;;;;;;;21.40;15.43;;;;;;;;;;5114296;28;20030;-83
2021/08/05 01:50:57;;;;;;;26.70;17.90;;;;;;;;;;5114192;28;20472;-83
2021/08/05 01:53:23;;;;;;;23.63;18.73;;;;;;;;;;5113872;28;20020;-83
2021/08/05 01:55:48;;;;;;;21.48;14.45;;;;;;;;;;5113661;28;20045;-83
2021/08/05 01:58:14;;;;;;;20.80;17.40;;;;;;;;;;5114536;28;20132;-83
2021/08/05 02:00:40;;;;;;;21.48;19.10;;;;;;;;;;5113881;28;20020;-83
2021/08/05 02:03:09;;;;;;;21.42;18.98;;;;;;;;;;5118025;28;20028;-83
2021/08/05 02:06:17;;;;;;;26.02;21.27;;;;;;;;;;5123463;28;20041;-83
2021/08/05 02:08:55;;;;;;;26.17;20.05;;;;;;;;;;5124198;28;20490;-83
2021/08/05 02:11:24;;;;;;;27.73;20.98;;;;;;;;;;5121374;28;20039;-83
2021/08/05 02:13:50;;;;;;;23.02;19.05;;;;;;;;;;5119139;28;20024;-83
2021/08/05 02:16:18;;;;;;;27.38;21.95;;;;;;;;;;5119115;28;20023;-83
2021/08/05 02:18:45;;;;;;;22.60;16.55;;;;;;;;;;5100297;28;20421;-83
2021/08/05 02:21:14;;;;;;;16.10;13.95;;;;;;;;;;5118089;28;20023;-83
2021/08/05 02:23:41;;;;;;;17.92;14.63;;;;;;;;;;5117937;28;20522;-83
2021/08/05 02:26:08;;;;;;;16.83;15.13;;;;;;;;;;5117688;28;20102;-83
2021/08/05 02:28:34;;;;;;;18.98;14.00;;;;;;;;;;5118008;28;20028;-82
2021/08/05 02:31:00;;;;;;;18.70;14.20;;;;;;;;;;5118227;28;20030;-82
2021/08/05 02:33:30;;;;;;;15.20;13.15;;;;;;;;;;5117645;28;20427;-83
2021/08/05 02:35:57;;;;;;;14.35;11.27;;;;;;;;;;5117549;28;20485;-82
2021/08/05 02:38:23;;;;;;;16.13;13.60;;;;;;;;;;5117425;28;20115;-82
2021/08/05 02:40:50;;;;;;;20.23;15.90;;;;;;;;;;5117365;28;20110;-82
2021/08/05 02:43:17;;;;;;;17.90;14.43;;;;;;;;;;5099069;28;20027;-82
2021/08/05 02:45:44;;;;;;;18.60;11.00;;;;;;;;;;5117268;28;20041;-83
2021/08/05 02:48:11;;;;;;;17.67;11.60;;;;;;;;;;5117364;28;20467;-83
2021/08/05 02:50:38;;;;;;;18.95;14.95;;;;;;;;;;5117192;28;20489;-82
2021/08/05 02:53:05;;;;;;;17.83;11.80;;;;;;;;;;5117224;28;20038;-82
2021/08/05 02:55:31;;;;;;;20.02;15.38;;;;;;;;;;5117015;28;20044;-83
2021/08/05 02:57:58;;;;;;;24.52;17.73;;;;;;;;;;5117196;28;20467;-83
2021/08/05 03:00:24;;;;;;;21.38;15.15;;;;;;;;;;5117194;28;20068;-83
2021/08/05 03:02:50;;;;;;;24.52;18.23;;;;;;;;;;5117222;28;20465;-82
2021/08/05 03:05:17;;;;;;;28.05;20.17;;;;;;;;;;5117078;28;20020;-82
2021/08/05 03:07:43;;;;;;;22.30;19.67;;;;;;;;;;5116948;28;20027;-83
2021/08/05 03:10:11;;;;;;;20.55;16.77;;;;;;;;;;5117098;28;20028;-82
2021/08/05 03:12:37;;;;;;;18.77;15.40;;;;;;;;;;5098656;28;20028;-82
2021/08/05 03:15:03;;;;;;;21.88;15.02;;;;;;;;;;5116688;28;20020;-82
2021/08/05 03:17:29;;;;;;;17.42;15.50;;;;;;;;;;5117019;28;20019;-82
2021/08/05 03:19:54;;;;;;;19.05;11.80;;;;;;;;;;5116992;28;20498;-82
2021/08/05 03:22:20;;;;;;;14.55;10.52;;;;;;;;;;5116782;28;20024;-83
2021/08/05 03:24:46;;;;;;;21.88;15.10;;;;;;;;;;5116666;28;20030;-82
2021/08/05 03:27:11;;;;;;;17.50;11.27;;;;;;;;;;5116612;28;20031;-83
2021/08/05 03:29:38;;;;;;;21.70;13.10;;;;;;;;;;5116499;28;20051;-82
2021/08/05 03:32:04;;;;;;;18.33;14.43;;;;;;;;;;5116466;28;20027;-84
2021/08/05 03:34:30;;;;;;;21.02;16.05;;;;;;;;;;5116318;28;20098;-82
2021/08/05 03:36:56;;;;;;;21.95;14.75;;;;;;;;;;5116424;28;20062;-83
2021/08/05 03:39:21;;;;;;;18.30;12.95;;;;;;;;;;5116515;28;20391;-83
2021/08/05 03:41:47;;;;;;;17.55;15.75;;;;;;;;;;5116689;28;20135;-82
2021/08/05 03:44:13;;;;;;;14.18;12.40;;;;;;;;;;5116227;28;20015;-82
2021/08/05 03:46:39;;;;;;;14.93;11.85;;;;;;;;;;5116336;28;20038;-82
2021/08/05 03:49:06;;;;;;;15.35;9.70;;;;;;;;;;5116235;28;20081;-83
2021/08/05 03:51:32;;;;;;;19.98;15.95;;;;;;;;;;5116264;28;20046;-82
2021/08/05 03:53:58;;;;;;;24.33;18.58;;;;;;;;;;5116405;28;20459;-82
2021/08/05 03:56:24;;;;;;;18.23;15.05;;;;;;;;;;5116789;28;20123;-82
2021/08/05 03:58:49;;;;;;;16.02;12.43;;;;;;;;;;5116710;28;20053;-82
2021/08/05 04:01:15;;;;;;;16.90;13.43;;;;;;;;;;5116434;28;20023;-82
2021/08/05 04:03:40;;;;;;;17.27;12.55;;;;;;;;;;5115871;28;20103;-82
2021/08/05 04:06:07;;;;;;;19.05;15.10;;;;;;;;;;5115703;28;20028;-83
2021/08/05 04:08:33;;;;;;;18.73;14.85;;;;;;;;;;5115821;28;20026;-83
2021/08/05 04:10:59;;;;;;;15.05;13.43;;;;;;;;;;5115694;28;20114;-82
2021/08/05 04:13:24;;;;;;;24.60;16.48;;;;;;;;;;5115631;28;20035;-83
2021/08/05 04:15:50;;;;;;;18.98;15.18;;;;;;;;;;5115687;28;20493;-82
2021/08/05 04:18:16;;;;;;;18.63;14.55;;;;;;;;;;5097184;28;20028;-82
2021/08/05 04:20:41;;;;;;;19.02;14.65;;;;;;;;;;5115672;28;20024;-83
2021/08/05 04:23:07;;;;;;;16.52;13.10;;;;;;;;;;5115467;28;20023;-83
2021/08/05 04:25:33;;;;;;;14.00;12.55;;;;;;;;;;5114300;28;20023;-84
2021/08/05 04:27:59;;;;;;;13.10;11.75;;;;;;;;;;5097120;28;20031;-83
2021/08/05 04:30:25;;;;;;;13.95;12.32;;;;;;;;;;5115361;28;20039;-83
2021/08/05 04:32:51;;;;;;;13.05;8.23;;;;;;;;;;5115333;28;20028;-83
2021/08/05 04:35:17;;;;;;;13.65;9.85;;;;;;;;;;5080195;28;20431;-83
2021/08/05 04:37:48;;;;;;;13.05;10.82;;;;;;;;;;5115261;28;20386;-83
2021/08/05 04:40:13;;;;;;;13.75;12.30;;;;;;;;;;5115145;28;20031;-82
2021/08/05 04:42:39;;;;;;;13.05;10.82;;;;;;;;;;5115199;28;20375;-83
2021/08/05 04:45:05;;;;;;;13.63;11.88;;;;;;;;;;5114909;28;20104;-82
2021/08/05 04:47:31;;;;;;;14.98;11.93;;;;;;;;;;5097288;28;20031;-83
2021/08/05 04:49:56;;;;;;;13.15;9.85;;;;;;;;;;5114954;28;20034;-82
2021/08/05 04:52:22;;;;;;;13.93;11.02;;;;;;;;;;5114954;28;20370;-83
2021/08/05 04:54:47;;;;;;;15.48;11.70;;;;;;;;;;5114896;28;20065;-83
2021/08/05 04:57:13;;;;;;;14.68;12.75;;;;;;;;;;5115055;28;20048;-83
2021/08/05 04:59:39;;;;;;;13.60;10.32;;;;;;;;;;5096435;28;20027;-83
2021/08/05 05:02:04;;;;;;;12.38;8.77;;;;;;;;;;5114662;28;20023;-83
2021/08/05 05:04:30;;;;;;;13.88;11.82;;;;;;;;;;5114699;28;20034;-83
2021/08/05 05:06:56;;;;;;;12.35;8.32;;;;;;;;;;5114516;28;20114;-84
2021/08/05 05:09:21;;;;;;;11.85;7.65;;;;;;;;;;5114849;28;20023;-83
2021/08/05 05:11:47;;;;;;;12.30;9.10;;;;;;;;;;5114512;28;20033;-84
2021/08/05 05:14:13;;;;;;;13.07;11.73;;;;;;;;;;5114773;28;20111;-84
2021/08/05 05:16:38;;;;;;;11.38;9.75;;;;;;;;;;5114957;28;20427;-83
2021/08/05 05:19:04;;;;;;;14.32;8.52;;;;;;;;;;5114992;28;20467;-84
2021/08/05 05:21:30;;;;;;;17.27;10.32;;;;;;;;;;5096083;28;20023;-84
2021/08/05 05:23:55;;;;;;;15.90;12.13;;;;;;;;;;5114323;28;20015;-85
2021/08/05 05:26:21;;;;;;;15.50;11.50;;;;;;;;;;5096217;28;20479;-84
2021/08/05 05:28:46;;;;;;;12.68;11.05;;;;;;;;;;5114473;28;20024;-84
2021/08/05 05:31:12;;;;;;;14.52;12.98;;;;;;;;;;5114219;28;20027;-84
2021/08/05 05:33:47;;;;;;;12.80;8.95;;;;;;;;;;5114215;28;20471;-86
2021/08/05 05:36:12;;;;;;;15.02;10.02;;;;;;;;;;5113833;28;20055;-86
2021/08/05 05:38:38;;;;;;;10.75;7.40;;;;;;;;;;5114106;28;20047;-87
2021/08/05 05:41:04;;;;;;;12.38;11.15;;;;;;;;;;5114136;28;20016;-87
2021/08/05 05:43:30;;;;;;;11.30;8.63;;;;;;;;;;5114114;28;20391;-87
2021/08/05 05:45:55;;;;;;;13.23;7.85;;;;;;;;;;5114459;28;20024;-84
2021/08/05 05:48:21;;;;;;;14.10;10.75;;;;;;;;;;5114040;28;20030;-84
2021/08/05 05:50:47;;;;;;;16.83;11.82;;;;;;;;;;5113956;28;20046;-84
2021/08/05 05:53:15;;;;;;;13.65;9.05;;;;;;;;;;5114125;28;20034;-82
2021/08/05 05:55:41;;;;;;;15.52;9.35;;;;;;;;;;5116480;28;20052;-84
2021/08/05 05:58:08;;;;;;;13.27;8.38;;;;;;;;;;5096972;28;20449;-84
2021/08/05 06:00:34;;;;;;;14.13;11.32;;;;;;;;;;5114122;28;20027;-83
2021/08/05 06:03:02;;;;;;;15.35;7.50;;;;;;;;;;5113871;28;20030;-84
2021/08/05 06:05:28;;;;;;;15.25;8.75;;;;;;;;;;5114073;28;20072;-85
2021/08/05 06:07:53;;;;;;;13.80;8.40;;;;;;;;;;5095819;28;20020;-84
2021/08/05 06:10:21;;;;;;;13.63;8.73;;;;;;;;;;5114039;28;20019;-85
2021/08/05 06:12:47;;;;;;;11.60;7.38;;;;;;;;;;5113805;28;20102;-84
2021/08/05 06:15:14;;;;;;;11.25;10.02;;;;;;;;;;5113839;28;20107;-84
2021/08/05 06:17:44;;;;;;;10.15;7.78;;;;;;;;;;5113798;28;20016;-84
2021/08/05 06:20:11;;;;;;;12.82;7.88;;;;;;;;;;5113818;28;20372;-85
2021/08/05 06:22:39;;;;;;;11.13;7.40;;;;;;;;;;5113629;28;20069;-84
2021/08/05 06:25:06;;;;;;;12.32;8.30;;;;;;;;;;5113550;28;20429;-85
2021/08/05 06:27:32;;;;;;;12.95;8.18;;;;;;;;;;5095434;28;20023;-84
2021/08/05 06:29:58;;;;;;;13.50;5.80;;;;;;;;;;5114014;28;20064;-84
2021/08/05 06:32:25;;;;;;;12.20;7.75;;;;;;;;;;5114064;28;20435;-85
2021/08/05 06:34:51;;;;;;;10.85;6.63;;;;;;;;;;5114095;28;20486;-84
2021/08/05 06:37:16;;;;;;;9.75;6.72;;;;;;;;;;5121981;28;20020;-84
2021/08/05 06:39:42;;;;;;;13.65;6.88;;;;;;;;;;5122472;28;20034;-84
2021/08/05 06:42:08;;;;;;;10.23;6.20;;;;;;;;;;5117188;28;20023;-84
2021/08/05 06:44:36;;;;;;;9.73;6.57;;;;;;;;;;5097249;28;20540;-84
2021/08/05 06:47:03;;;;;;;10.93;7.20;;;;;;;;;;5115352;28;20031;-84
2021/08/05 06:49:29;;;;;;;11.98;7.20;;;;;;;;;;5116915;28;20059;-84
2021/08/05 06:51:55;;;;;;;9.35;5.65;;;;;;;;;;5118089;28;20388;-85
2021/08/05 06:54:20;;;;;;;12.70;6.55;;;;;;;;;;5117664;28;20023;-84
2021/08/05 06:56:46;;;;;;;11.07;6.90;;;;;;;;;;5117267;28;20054;-84
2021/08/05 06:59:13;;;;;;;13.85;6.72;;;;;;;;;;5117263;28;20114;-85
2021/08/05 07:01:39;;;;;;;12.13;6.13;;;;;;;;;;5098789;28;20022;-84
2021/08/05 07:04:04;;;;;;;11.15;5.70;;;;;;;;;;5117172;28;20076;-83
2021/08/05 07:06:30;;;;;;;10.95;6.28;;;;;;;;;;5116983;28;20031;-84
2021/08/05 07:08:56;;;;;;;9.70;5.97;;;;;;;;;;5117096;28;20032;-84
2021/08/05 07:11:21;;;;;;;7.85;6.53;;;;;;;;;;5116974;28;20023;-84
2021/08/05 07:13:47;;;;;;;11.32;6.80;;;;;;;;;;5116884;28;20425;-84
2021/08/05 07:16:13;;;;;;;10.38;5.68;;;;;;;;;;5116950;28;20072;-84
2021/08/05 07:18:39;;;;;;;12.15;5.85;;;;;;;;;;5116837;28;20476;-84
2021/08/05 07:21:05;;;;;;;13.65;4.93;;;;;;;;;;5116705;28;20031;-84
2021/08/05 07:23:31;;;;;;;9.57;5.43;;;;;;;;;;5098505;28;20059;-84
2021/08/05 07:25:56;;;;;;;13.70;5.00;;;;;;;;;;5116454;28;20024;-84
2021/08/05 07:28:22;;;;;;;8.80;4.65;;;;;;;;;;5116619;28;20035;-85
2021/08/05 07:30:48;;;;;;;11.48;5.05;;;;;;;;;;5116603;28;20068;-84
2021/08/05 07:33:14;;;;;;;8.13;4.47;;;;;;;;;;5116538;28;20066;-84
2021/08/05 07:35:39;;;;;;;13.88;5.47;;;;;;;;;;5116427;28;20426;-84
2021/08/05 07:38:05;;;;;;;11.13;5.80;;;;;;;;;;5116808;28;20114;-84
2021/08/05 07:40:31;;;;;;;8.38;4.60;;;;;;;;;;5116569;28;20531;-84
2021/08/05 07:42:56;;;;;;;9.07;5.20;;;;;;;;;;5098721;28;20032;-84
2021/08/05 07:45:22;;;;;;;11.45;5.57;;;;;;;;;;5116493;28;20027;-85
2021/08/05 07:47:48;;;;;;;6.55;3.35;;;;;;;;;;5116584;28;20030;-84
2021/08/05 07:50:14;;;;;;;7.63;4.40;;;;;;;;;;5116445;28;20375;-84
2021/08/05 07:52:41;;;;;;;11.38;5.00;;;;;;;;;;5116111;28;20027;-84
2021/08/05 07:55:07;;;;;;;8.90;3.90;;;;;;;;;;5116000;28;20027;-85
2021/08/05 07:57:34;;;;;;;8.07;3.55;;;;;;;;;;5116493;28;20016;-85
2021/08/05 08:00:01;;;;;;;8.52;3.28;;;;;;;;;;5115907;28;20552;-85
2021/08/05 08:02:28;;;;;;;10.98;4.30;;;;;;;;;;5097698;28;20027;-85
2021/08/05 08:04:53;;;;;;;6.40;4.20;;;;;;;;;;5116200;28;20099;-85
2021/08/05 08:07:19;;;;;;;6.82;4.55;;;;;;;;;;5116005;28;20103;-85
2021/08/05 08:09:45;;;;;;;9.85;4.20;;;;;;;;;;5115881;28;20027;-83
2021/08/05 08:12:10;;;;;;;13.50;5.45;;;;;;;;;;5115771;28;20024;-84
2021/08/05 08:14:36;;;;;;;13.02;6.22;;;;;;;;;;5097585;28;20030;-84
2021/08/05 08:17:02;;;;;;;12.75;4.93;;;;;;;;;;5097529;28;20162;-84
2021/08/05 08:19:29;;;;;;;15.13;6.25;;;;;;;;;;5115695;28;20102;-84
2021/08/05 08:21:55;;;;;;;18.05;6.15;;;;;;;;;;5116116;28;20057;-84
2021/08/05 08:24:22;;;;;;;11.15;5.53;;;;;;;;;;5116670;28;20057;-84
2021/08/05 08:26:48;;;;;;;18.17;5.22;;;;;;;;;;5117373;28;20027;-82
2021/08/05 08:29:14;;;;;;;11.75;4.88;;;;;;;;;;5116385;28;20060;-81
2021/08/05 08:31:40;;;;;;;8.43;4.00;;;;;;;;;;5097439;28;20471;-84
2021/08/05 08:34:05;;;;;;;10.07;5.40;;;;;;;;;;5115825;28;20024;-82
2021/08/05 08:36:31;;;;;;;7.95;4.03;;;;;;;;;;5115494;28;20077;-83
2021/08/05 08:38:58;;;;;;;11.32;5.53;;;;;;;;;;5115678;28;20019;-84
2021/08/05 08:41:25;;;;;;;11.52;5.82;;;;;;;;;;5115438;28;20019;-84
2021/08/05 08:43:54;;;;;;;10.77;4.82;;;;;;;;;;5115843;28;20103;-84
2021/08/05 08:46:20;;;;;;;12.98;4.20;;;;;;;;;;5097548;28;20023;-83
2021/08/05 08:48:50;;;;;;;9.63;4.95;;;;;;;;;;5115142;28;20022;-83
2021/08/05 08:51:17;;;;;;;13.02;4.68;;;;;;;;;;5116335;28;20493;-82
2021/08/05 08:53:44;;;;;;;8.65;4.70;;;;;;;;;;5097285;28;20032;-82
2021/08/05 08:56:09;;;;;;;9.35;4.30;;;;;;;;;;5096895;28;20043;-82
2021/08/05 08:58:36;;;;;;;11.88;6.03;;;;;;;;;;5115748;28;20038;-84
2021/08/05 09:01:02;;;;;;;7.45;4.03;;;;;;;;;;5115967;28;20054;-83
2021/08/05 09:03:28;;;;;;;10.45;5.32;;;;;;;;;;5115755;28;20024;-83
2021/08/05 09:05:54;;;;;;;10.45;5.18;;;;;;;;;;5115734;28;20084;-84
2021/08/05 09:08:20;;;;;;;8.00;3.72;;;;;;;;;;5096516;28;20118;-84
2021/08/05 09:10:46;;;;;;;8.02;4.65;;;;;;;;;;5095961;28;20046;-83
2021/08/05 09:13:16;;;;;;;10.73;4.70;;;;;;;;;;5096956;28;20535;-83
2021/08/05 09:15:47;;;;;;;9.50;4.90;;;;;;;;;;5096389;28;20475;-83
2021/08/05 09:18:31;;;;;;;8.65;4.93;;;;;;;;;;5115346;28;20464;-84
2021/08/05 09:21:27;;;;;;;10.77;3.95;;;;;;;;;;5096978;28;20031;-82
2021/08/05 09:24:16;;;;;;;8.05;5.55;;;;;;;;;;5100656;28;20035;-83
2021/08/05 09:27:07;;;;;;;9.55;3.97;;;;;;;;;;5102183;28;20031;-84
2021/08/05 09:29:56;;;;;;;;;;;;;;;;;;;;;
2021/08/05 09:32:41;;;;;;;7.22;4.55;;;;;;;;;;5120736;28;20452;-84
2021/08/05 09:35:10;;;;;;;9.05;4.53;;;;;;;;;;5102557;28;20038;-86
2021/08/05 09:37:49;;;;;;;10.55;3.08;;;;;;;;;;5103707;28;20035;-84
2021/08/05 09:40:30;;;;;;;7.18;3.50;;;;;;;;;;5102458;28;20118;-84
2021/08/05 09:42:59;;;;;;;7.70;4.93;;;;;;;;;;5088025;28;20040;-84
2021/08/05 09:45:39;;;;;;;;;;;;;;;;;;5102939;28;20062;-83
2021/08/05 09:48:08;;;;;;;14.77;4.18;;;;;;;;;;5102561;28;19923;-84
2021/08/05 09:50:42;;;;;;;9.57;3.65;;;;;;;;;;5105308;28;20031;-85
2021/08/05 09:53:11;;;;;;;8.45;3.70;;;;;;;;;;5087728;28;20074;-83
2021/08/05 09:55:41;;;;;;;6.82;4.07;;;;;;;;;;5102860;28;20043;-85
2021/08/05 09:58:27;;;;;;;8.88;3.60;;;;;;;;;;5103233;28;20360;-85
2021/08/05 10:01:09;;;;;;;7.32;3.92;;;;;;;;;;5102614;28;20016;-84
2021/08/05 10:03:39;;;;;;;7.15;3.45;;;;;;;;;;5123078;28;20051;-84
2021/08/05 10:06:39;;;;;;;;;;;;;;;;;;;;;
2021/08/05 10:09:30;;;;;;;7.60;3.80;;;;;;;;;;5114680;28;20127;-86
2021/08/05 10:12:30;;;;;;;;;;;;;;;;;;;;;
2021/08/05 10:15:51;;;;;;;9.70;4.40;;;;;;;;;;5116300;28;20444;-84
2021/08/05 10:19:00;;;;;;;7.15;2.67;;;;;;;;;;5101804;28;20031;-84
2021/08/05 10:21:48;;;;;;;7.82;3.58;;;;;;;;;;5100777;28;20027;-84
2021/08/05 10:25:08;;;;;;;6.82;2.88;;;;;;;;;;5104831;28;20107;-83
2021/08/05 10:31:08;;;;;;;15.88;3.35;;;;;;;;;;5023950;28;20437;-85
2021/08/05 10:33:46;;;;;;;8.52;3.53;;;;;;;;;;5031637;28;20524;-83
2021/08/05 10:36:35;;;;;;;5.88;2.78;;;;;;;;;;5043626;28;20033;-86
2021/08/05 10:45:47;;;;;;;10.52;2.72;;;;;;;;;;4986896;28;20036;-86
2021/08/05 10:48:14;;;;;;;8.00;3.03;;;;;;;;;;4995699;28;20034;-86
2021/08/05 10:50:48;;;;;;;5.20;2.50;;;;;;;;;;4996072;28;20467;-85
2021/08/05 10:53:36;;;;;;;5.68;2.40;;;;;;;;;;4995698;28;20050;-84
2021/08/05 10:56:21;;;;;;;11.18;2.85;;;;;;;;;;4991586;28;20077;-84
2021/08/05 11:02:35;;;;;;;7.40;2.63;;;;;;;;;;5000513;28;20121;-85
2021/08/05 11:08:18;;;;;;;19.23;5.20;;;;;;;;;;5018735;28;20084;-85
2021/08/05 11:11:27;;;;;;;7.20;2.72;;;;;;;;;;5023490;28;20033;-85
2021/08/05 11:13:59;;;;;;;8.43;3.83;;;;;;;;;;5104362;28;20120;-85
2021/08/05 11:17:14;;;;;;;8.73;2.63;;;;;;;;;;5104291;28;20043;-85
2021/08/05 11:20:17;;;;;;;7.13;3.35;;;;;;;;;;5123110;28;20191;-84
2021/08/05 11:23:05;;;;;;;6.22;3.85;;;;;;;;;;5104464;28;20028;-84
2021/08/05 11:25:49;;;;;;;;;;;;;;;;;;5125211;28;20047;-85
2021/08/05 11:28:26;;;;;;;5.43;2.50;;;;;;;;;;5124085;28;19935;-84
2021/08/05 11:31:07;;;;;;;12.60;2.90;;;;;;;;;;5131867;28;20043;-84
2021/08/05 11:33:39;;;;;;;10.38;2.63;;;;;;;;;;5116739;28;20026;-84
2021/08/05 11:36:14;;;;;;;13.55;3.70;;;;;;;;;;5129691;28;20024;-85
2021/08/05 11:42:34;;;;;;;;;;;;;;;;;;;;;
2021/08/05 11:45:06;;;;;;;7.25;2.15;;;;;;;;;;4999125;28;20122;-85
2021/08/05 11:47:45;;;;;;;6.55;3.13;;;;;;;;;;5000424;28;20035;-86
2021/08/05 11:50:18;;;;;;;8.85;2.30;;;;;;;;;;5033268;28;20480;-85
2021/08/05 11:53:03;;;;;;;6.97;2.13;;;;;;;;;;5080110;28;20114;-85
2021/08/05 11:56:26;;;;;;;7.15;2.80;;;;;;;;;;5063766;28;20476;-86
2021/08/05 12:05:13;;;;;;;;;;;;;;;;;;;;;
2021/08/05 12:11:32;;;;;;;12.35;2.63;;;;;;;;;;5050534;28;20058;-84
2021/08/05 12:14:14;;;;;;;8.43;2.88;;;;;;;;;;5079423;28;20029;-83
2021/08/05 12:17:00;;;;;;;6.72;2.10;;;;;;;;;;5078238;28;20086;-83
2021/08/05 12:19:34;;;;;;;5.68;2.38;;;;;;;;;;5098777;28;20039;-81
2021/08/05 12:22:05;;;;;;;8.30;1.95;;;;;;;;;;5099901;28;20085;-81
2021/08/05 12:25:21;;;;;;;;;;;;;;;;;;;;;
2021/08/05 12:28:15;;;;;;;4.88;2.50;;;;;;;;;;5096151;28;20379;-85
2021/08/05 12:30:53;;;;;;;6.30;2.72;;;;;;;;;;5094169;28;20032;-85
2021/08/05 12:33:21;;;;;;;9.95;3.00;;;;;;;;;;5096154;28;20031;-85
2021/08/05 12:36:19;;;;;;;8.52;2.45;;;;;;;;;;5096719;28;20024;-84
2021/08/05 12:39:10;;;;;;;9.40;3.00;;;;;;;;;;5097609;28;20103;-84
2021/08/05 12:41:49;;;;;;;6.55;2.47;;;;;;;;;;5097192;28;20110;-83
2021/08/05 12:44:25;;;;;;;6.03;3.50;;;;;;;;;;5095044;28;20024;-84
2021/08/05 12:46:56;;;;;;;10.20;3.17;;;;;;;;;;5094122;28;20031;-83
2021/08/05 12:49:34;;;;;;;5.53;2.65;;;;;;;;;;5094974;28;20030;-84
2021/08/05 12:52:17;;;;;;;7.68;2.78;;;;;;;;;;5098500;28;20422;-83
2021/08/05 12:54:55;;;;;;;7.13;3.67;;;;;;;;;;5097507;28;20020;-84
2021/08/05 12:57:22;;;;;;;7.22;2.63;;;;;;;;;;5112047;28;20047;-84
2021/08/05 12:59:51;;;;;;;6.70;2.22;;;;;;;;;;5116595;28;20027;-83
2021/08/05 13:02:18;;;;;;;6.93;2.03;;;;;;;;;;5115894;28;20027;-85
2021/08/05 13:04:45;;;;;;;6.93;2.92;;;;;;;;;;5115005;28;20020;-85
2021/08/05 13:07:17;;;;;;;6.45;2.60;;;;;;;;;;5114857;28;20081;-84
2021/08/05 13:09:53;;;;;;;5.22;2.95;;;;;;;;;;5115941;28;20065;-84
2021/08/05 13:12:21;;;;;;;8.93;3.80;;;;;;;;;;5114979;28;20026;-85
2021/08/05 13:14:47;;;;;;;6.53;2.95;;;;;;;;;;5097340;28;20375;-86
2021/08/05 13:17:19;;;;;;;7.47;3.45;;;;;;;;;;5115550;28;20106;-83
2021/08/05 13:20:00;;;;;;;6.82;3.42;;;;;;;;;;5115536;28;20019;-84
2021/08/05 13:22:40;;;;;;;5.35;3.42;;;;;;;;;;5115357;28;20019;-84
2021/08/05 13:25:14;;;;;;;6.25;2.88;;;;;;;;;;5115386;28;20055;-88
2021/08/05 13:27:42;;;;;;;6.18;3.50;;;;;;;;;;5098181;28;20399;-88
2021/08/05 13:30:18;;;;;;;6.28;2.80;;;;;;;;;;5097213;28;20181;-87
2021/08/05 13:32:45;;;;;;;7.68;2.88;;;;;;;;;;5115356;28;20020;-88
2021/08/05 13:35:12;;;;;;;6.97;3.60;;;;;;;;;;5114659;28;20020;-87
2021/08/05 13:37:43;;;;;;;12.98;2.60;;;;;;;;;;5115829;28;20030;-89
2021/08/05 13:40:22;;;;;;;9.00;2.90;;;;;;;;;;5114732;28;20057;-84
2021/08/05 13:42:48;;;;;;;9.35;2.78;;;;;;;;;;5114804;28;20103;-82
2021/08/05 13:45:14;;;;;;;7.28;3.47;;;;;;;;;;5096062;28;20050;-84
2021/08/05 13:47:40;;;;;;;8.68;3.53;;;;;;;;;;5095908;28;20023;-86
2021/08/05 13:50:18;;;;;;;7.68;2.35;;;;;;;;;;5114358;28;20031;-84
2021/08/05 13:52:44;;;;;;;7.78;2.67;;;;;;;;;;5114115;28;20461;-85
2021/08/05 13:55:11;;;;;;;10.18;3.50;;;;;;;;;;5114100;28;20379;-85
2021/08/05 13:57:37;;;;;;;11.90;4.05;;;;;;;;;;5113566;28;20051;-84
2021/08/05 14:00:04;;;;;;;7.35;3.00;;;;;;;;;;5114022;28;20110;-84
2021/08/05 14:02:30;;;;;;;7.40;2.65;;;;;;;;;;5113808;28;20031;-85
2021/08/05 14:04:59;;;;;;;5.47;2.90;;;;;;;;;;5114222;28;20425;-84
2021/08/05 14:07:24;;;;;;;7.18;3.10;;;;;;;;;;5113856;28;20034;-86
2021/08/05 14:09:50;;;;;;;10.52;3.40;;;;;;;;;;5114283;28;20024;-87
2021/08/05 14:12:16;;;;;;;6.95;2.20;;;;;;;;;;5113888;28;20046;-85
2021/08/05 14:14:42;;;;;;;9.90;3.33;;;;;;;;;;5113889;28;20028;-86
2021/08/05 14:17:07;;;;;;;8.30;3.00;;;;;;;;;;5113975;28;20027;-85
2021/08/05 14:19:33;;;;;;;7.03;2.70;;;;;;;;;;5114048;28;20458;-85
2021/08/05 14:21:59;;;;;;;8.45;3.00;;;;;;;;;;5114811;28;20034;-85
2021/08/05 14:24:25;;;;;;;8.82;3.05;;;;;;;;;;5114363;28;20024;-84
2021/08/05 14:26:53;;;;;;;9.88;4.05;;;;;;;;;;5114702;28;20028;-84
2021/08/05 14:29:18;;;;;;;9.32;3.10;;;;;;;;;;5114279;28;20036;-84
2021/08/05 14:31:56;;;;;;;6.90;4.20;;;;;;;;;;5114449;28;20020;-84
2021/08/05 14:34:22;;;;;;;7.18;3.83;;;;;;;;;;5113810;28;20490;-86
2021/08/05 14:36:47;;;;;;;9.20;3.15;;;;;;;;;;5114952;28;20024;-84
2021/08/05 14:39:13;;;;;;;10.52;3.92;;;;;;;;;;5114167;28;20490;-85
2021/08/05 14:41:38;;;;;;;8.38;3.17;;;;;;;;;;5114070;28;20498;-85
2021/08/05 14:44:10;;;;;;;6.85;3.75;;;;;;;;;;5114499;28;20032;-85
2021/08/05 14:46:39;;;;;;;7.85;3.88;;;;;;;;;;5114084;28;20488;-85
2021/08/05 14:49:06;;;;;;;7.30;3.60;;;;;;;;;;5114152;28;20027;-85
2021/08/05 14:51:33;;;;;;;6.03;3.80;;;;;;;;;;5113921;28;20076;-85
2021/08/05 14:53:59;;;;;;;7.50;3.88;;;;;;;;;;5113673;28;20030;-85
2021/08/05 14:56:25;;;;;;;10.13;3.60;;;;;;;;;;5114243;28;20126;-85
2021/08/05 14:58:55;;;;;;;7.93;3.63;;;;;;;;;;5114315;28;20538;-85
2021/08/05 15:01:21;;;;;;;6.00;4.13;;;;;;;;;;5114138;28;20051;-85
2021/08/05 15:03:46;;;;;;;5.07;2.92;;;;;;;;;;5114105;28;20379;-85
2021/08/05 15:06:12;;;;;;;7.72;3.83;;;;;;;;;;5113447;28;20023;-84
2021/08/05 15:08:38;;;;;;;7.88;3.55;;;;;;;;;;5114924;28;20026;-86
2021/08/05 15:11:03;;;;;;;8.15;2.65;;;;;;;;;;5117684;28;20438;-85
2021/08/05 15:13:29;;;;;;;6.88;3.60;;;;;;;;;;5099590;28;20356;-85
2021/08/05 15:15:55;;;;;;;7.82;4.13;;;;;;;;;;5099941;28;20035;-85
2021/08/05 15:18:24;;;;;;;9.25;3.33;;;;;;;;;;5099384;28;20027;-85
2021/08/05 15:20:49;;;;;;;6.55;3.60;;;;;;;;;;5117852;28;20023;-84
2021/08/05 15:23:16;;;;;;;12.10;3.72;;;;;;;;;;5118144;28;20032;-84
2021/08/05 15:25:41;;;;;;;7.80;3.92;;;;;;;;;;5117597;28;20026;-84